createdAt,value
2018-11-13T00:00:37.256Z,91.90
2018-11-13T00:01:15.916Z,91.60
2018-11-13T00:01:54.084Z,91.60
2018-11-13T00:02:33.582Z,91.60
2018-11-13T00:03:12.865Z,91.60
2018-11-13T00:03:51.143Z,91.60
2018-11-13T00:04:29.635Z,91.70
2018-11-13T00:05:08.723Z,91.70
2018-11-13T00:05:48.478Z,91.80
2018-11-13T00:06:30.691Z,91.70
2018-11-13T00:07:09.161Z,91.70
2018-11-13T00:07:47.454Z,91.70
2018-11-13T00:08:25.659Z,91.70
2018-11-13T00:09:05.994Z,91.70
2018-11-13T00:09:44.402Z,91.80
2018-11-13T00:10:22.598Z,91.80
2018-11-13T00:11:01.096Z,91.80
2018-11-13T00:11:40.310Z,91.80
2018-11-13T00:12:19.775Z,91.80
2018-11-13T00:12:58.024Z,91.90
2018-11-13T00:13:37.258Z,92.00
2018-11-13T00:14:15.407Z,91.80
2018-11-13T00:14:55.395Z,91.80
2018-11-13T00:15:33.721Z,91.80
2018-11-13T00:16:12.039Z,91.90
2018-11-13T00:16:50.423Z,92.00
2018-11-13T00:17:28.408Z,91.70
2018-11-13T00:18:06.763Z,91.80
2018-11-13T00:18:45.421Z,91.80
2018-11-13T00:19:23.926Z,91.70
2018-11-13T00:20:02.218Z,91.80
2018-11-13T00:20:40.090Z,91.70
2018-11-13T00:21:18.569Z,91.60
2018-11-13T00:21:56.568Z,91.50
2018-11-13T00:22:35.100Z,91.60
2018-11-13T00:23:13.520Z,91.60
2018-11-13T00:23:53.102Z,91.50
2018-11-13T00:24:33.524Z,91.50
2018-11-13T00:25:14.349Z,91.60
2018-11-13T00:25:52.910Z,91.60
2018-11-13T00:26:31.324Z,91.50
2018-11-13T00:27:09.480Z,91.40
2018-11-13T00:27:47.810Z,91.30
2018-11-13T00:28:26.355Z,91.40
2018-11-13T00:29:05.107Z,91.50
2018-11-13T00:29:44.110Z,91.30
2018-11-13T00:30:24.511Z,91.30
2018-11-13T00:31:03.162Z,91.30
2018-11-13T00:31:41.307Z,91.30
2018-11-13T00:32:21.022Z,91.40
2018-11-13T00:32:59.465Z,91.40
2018-11-13T00:33:38.756Z,91.50
2018-11-13T00:34:16.829Z,91.50
2018-11-13T00:34:57.054Z,91.60
2018-11-13T00:35:35.699Z,91.60
2018-11-13T00:36:14.896Z,92.00
2018-11-13T00:36:53.092Z,91.90
2018-11-13T00:37:31.232Z,91.90
2018-11-13T00:38:09.937Z,92.00
2018-11-13T00:38:48.075Z,92.10
2018-11-13T00:39:26.493Z,92.20
2018-11-13T00:40:05.095Z,92.20
2018-11-13T00:40:43.850Z,92.20
2018-11-13T00:41:22.301Z,92.10
2018-11-13T00:42:01.186Z,92.10
2018-11-13T00:42:40.398Z,92.00
2018-11-13T00:43:18.545Z,91.90
2018-11-13T00:43:56.883Z,91.90
2018-11-13T00:44:35.043Z,91.80
2018-11-13T00:45:12.967Z,91.70
2018-11-13T00:45:51.244Z,91.70
2018-11-13T00:46:29.783Z,91.60
2018-11-13T00:47:08.213Z,91.70
2018-11-13T00:47:46.685Z,91.70
2018-11-13T00:48:25.619Z,91.60
2018-11-13T00:49:06.282Z,91.50
2018-11-13T00:49:44.569Z,91.40
2018-11-13T00:50:23.980Z,91.30
2018-11-13T00:51:02.223Z,91.30
2018-11-13T00:51:40.933Z,91.30
2018-11-13T00:52:19.403Z,91.40
2018-11-13T00:52:57.305Z,91.40
2018-11-13T00:53:35.510Z,92.10
2018-11-13T00:54:13.946Z,91.70
2018-11-13T00:54:52.070Z,91.70
2018-11-13T00:55:30.782Z,91.20
2018-11-13T00:56:09.219Z,91.10
2018-11-13T00:56:47.776Z,90.90
2018-11-13T00:57:25.689Z,90.80
2018-11-13T00:58:04.224Z,90.70
2018-11-13T00:58:42.427Z,90.60
2018-11-13T00:59:20.378Z,90.50
2018-11-13T01:00:01.525Z,90.50
2018-11-13T01:00:39.441Z,90.50
2018-11-13T01:01:17.356Z,90.40
2018-11-13T01:01:55.295Z,90.40
2018-11-13T01:02:33.142Z,90.40
2018-11-13T01:03:12.055Z,90.40
2018-11-13T01:03:50.167Z,90.50
2018-11-13T01:04:28.059Z,90.50
2018-11-13T01:05:06.006Z,90.40
2018-11-13T01:05:44.537Z,90.50
2018-11-13T01:06:22.698Z,91.30
2018-11-13T01:07:00.573Z,91.20
2018-11-13T01:07:38.439Z,91.10
2018-11-13T01:08:16.364Z,91.00
2018-11-13T01:08:54.214Z,91.00
2018-11-13T01:09:34.270Z,91.00
2018-11-13T01:10:13.234Z,91.00
2018-11-13T01:10:51.966Z,90.90
2018-11-13T01:11:29.810Z,90.90
2018-11-13T01:12:07.878Z,90.90
2018-11-13T01:12:46.738Z,90.80
2018-11-13T01:13:24.710Z,90.70
2018-11-13T01:14:02.727Z,90.70
2018-11-13T01:14:40.555Z,90.70
2018-11-13T01:15:19.841Z,90.80
2018-11-13T01:15:57.742Z,90.80
2018-11-13T01:16:35.699Z,90.80
2018-11-13T01:17:14.155Z,90.80
2018-11-13T01:17:52.598Z,90.70
2018-11-13T01:18:30.528Z,91.00
2018-11-13T01:19:08.432Z,90.70
2018-11-13T01:19:46.339Z,90.60
2018-11-13T01:20:24.487Z,90.50
2018-11-13T01:21:02.350Z,90.50
2018-11-13T01:21:40.334Z,90.50
2018-11-13T01:22:18.314Z,90.50
2018-11-13T01:22:56.124Z,90.40
2018-11-13T01:23:34.075Z,90.40
2018-11-13T01:24:12.055Z,90.40
2018-11-13T01:24:50.213Z,90.40
2018-11-13T01:25:28.576Z,90.40
2018-11-13T01:26:06.661Z,90.10
2018-11-13T01:26:45.243Z,90.30
2018-11-13T01:27:23.330Z,90.40
2018-11-13T01:28:01.729Z,90.20
2018-11-13T01:28:41.358Z,90.20
2018-11-13T01:29:19.320Z,90.20
2018-11-13T01:29:57.503Z,90.10
2018-11-13T01:30:35.734Z,90.10
2018-11-13T01:31:13.825Z,90.10
2018-11-13T01:31:51.956Z,90.00
2018-11-13T01:32:31.241Z,90.10
2018-11-13T01:33:09.158Z,90.10
2018-11-13T01:33:46.979Z,90.10
2018-11-13T01:34:24.932Z,90.10
2018-11-13T01:35:03.095Z,90.00
2018-11-13T01:35:41.783Z,90.20
2018-11-13T01:36:19.621Z,90.10
2018-11-13T01:36:57.812Z,90.10
2018-11-13T01:37:35.696Z,90.10
2018-11-13T01:38:13.644Z,90.20
2018-11-13T01:38:51.531Z,90.00
2018-11-13T01:39:29.556Z,90.00
2018-11-13T01:40:10.774Z,89.90
2018-11-13T01:40:48.912Z,89.90
2018-11-13T01:41:26.750Z,89.70
2018-11-13T01:42:04.618Z,89.60
2018-11-13T01:42:43.184Z,89.60
2018-11-13T01:43:21.178Z,89.50
2018-11-13T01:43:59.083Z,89.40
2018-11-13T01:44:37.131Z,89.40
2018-11-13T01:45:18.082Z,89.40
2018-11-13T01:45:55.956Z,89.20
2018-11-13T01:46:33.871Z,89.30
2018-11-13T01:47:11.801Z,89.20
2018-11-13T01:47:49.718Z,89.10
2018-11-13T01:48:28.072Z,89.00
2018-11-13T01:49:06.034Z,88.90
2018-11-13T01:49:43.967Z,88.80
2018-11-13T01:50:21.865Z,88.80
2018-11-13T01:50:59.818Z,88.80
2018-11-13T01:51:37.793Z,89.20
2018-11-13T01:52:15.633Z,88.70
2018-11-13T01:52:53.695Z,88.70
2018-11-13T01:53:31.692Z,88.60
2018-11-13T01:54:09.616Z,88.50
2018-11-13T01:54:47.462Z,88.40
2018-11-13T01:55:26.239Z,88.50
2018-11-13T01:56:04.111Z,88.40
2018-11-13T01:56:42.079Z,88.40
2018-11-13T01:57:20.066Z,88.50
2018-11-13T01:57:58.226Z,88.50
2018-11-13T01:58:36.328Z,88.60
2018-11-13T01:59:14.324Z,88.60
2018-11-13T01:59:52.226Z,88.70
2018-11-13T02:00:30.397Z,88.70
2018-11-13T02:01:08.242Z,88.50
2018-11-13T02:01:46.170Z,88.60
2018-11-13T02:02:24.132Z,88.60
2018-11-13T02:03:02.047Z,88.60
2018-11-13T02:03:39.850Z,88.60
2018-11-13T02:04:17.626Z,88.70
2018-11-13T02:04:55.753Z,88.70
2018-11-13T02:05:33.691Z,88.70
2018-11-13T02:06:11.551Z,88.50
2018-11-13T02:06:49.446Z,88.70
2018-11-13T02:07:27.660Z,88.60
2018-11-13T02:08:05.757Z,88.70
2018-11-13T02:08:43.809Z,88.70
2018-11-13T02:09:21.789Z,88.60
2018-11-13T02:09:59.687Z,88.70
2018-11-13T02:10:37.449Z,88.70
2018-11-13T02:11:15.361Z,88.40
2018-11-13T02:11:54.267Z,88.40
2018-11-13T02:12:32.130Z,88.40
2018-11-13T02:13:10.494Z,88.80
2018-11-13T02:13:48.464Z,88.40
2018-11-13T02:14:27.709Z,88.30
2018-11-13T02:15:05.788Z,88.20
2018-11-13T02:15:43.756Z,88.10
2018-11-13T02:16:22.043Z,88.10
2018-11-13T02:16:59.906Z,88.20
2018-11-13T02:17:37.741Z,88.90
2018-11-13T02:18:15.763Z,88.20
2018-11-13T02:18:53.589Z,88.00
2018-11-13T02:19:31.454Z,87.90
2018-11-13T02:20:11.709Z,87.90
2018-11-13T02:20:49.614Z,87.90
2018-11-13T02:21:27.563Z,88.00
2018-11-13T02:22:05.595Z,88.00
2018-11-13T02:22:43.855Z,88.00
2018-11-13T02:23:21.738Z,87.90
2018-11-13T02:23:59.769Z,87.90
2018-11-13T02:24:37.659Z,87.90
2018-11-13T02:25:17.200Z,87.80
2018-11-13T02:25:55.127Z,87.80
2018-11-13T02:26:33.294Z,87.80
2018-11-13T02:27:11.510Z,87.70
2018-11-13T02:27:49.684Z,87.70
2018-11-13T02:28:27.630Z,87.70
2018-11-13T02:29:05.540Z,87.70
2018-11-13T02:29:43.544Z,87.70
2018-11-13T02:30:22.893Z,87.60
2018-11-13T02:31:03.096Z,87.60
2018-11-13T02:31:41.239Z,87.60
2018-11-13T02:32:19.183Z,87.70
2018-11-13T02:32:57.099Z,87.70
2018-11-13T02:33:35.243Z,87.70
2018-11-13T02:34:13.174Z,87.60
2018-11-13T02:34:51.550Z,87.60
2018-11-13T02:35:29.460Z,87.40
2018-11-13T02:36:07.417Z,87.20
2018-11-13T02:36:45.300Z,87.00
2018-11-13T02:37:23.136Z,87.10
2018-11-13T02:38:01.070Z,87.10
2018-11-13T02:38:39.032Z,87.10
2018-11-13T02:39:17.088Z,87.10
2018-11-13T02:39:55.017Z,87.00
2018-11-13T02:40:32.882Z,87.10
2018-11-13T02:41:10.800Z,86.90
2018-11-13T02:41:48.782Z,86.90
2018-11-13T02:42:27.496Z,86.80
2018-11-13T02:43:05.420Z,86.90
2018-11-13T02:43:43.215Z,86.90
2018-11-13T02:44:21.286Z,86.90
2018-11-13T02:44:59.331Z,86.80
2018-11-13T02:45:37.176Z,86.70
2018-11-13T02:46:15.531Z,86.80
2018-11-13T02:46:53.578Z,86.70
2018-11-13T02:47:31.478Z,86.60
2018-11-13T02:48:09.358Z,86.60
2018-11-13T02:48:47.242Z,86.80
2018-11-13T02:49:25.808Z,87.20
2018-11-13T02:50:05.543Z,87.00
2018-11-13T02:50:43.392Z,86.60
2018-11-13T02:51:21.225Z,86.60
2018-11-13T02:51:59.348Z,86.40
2018-11-13T02:52:37.151Z,86.30
2018-11-13T02:53:15.059Z,85.50
2018-11-13T02:53:52.981Z,85.70
2018-11-13T02:54:30.943Z,85.80
2018-11-13T02:55:09.198Z,85.80
2018-11-13T02:55:47.059Z,85.40
2018-11-13T02:56:25.349Z,85.30
2018-11-13T02:57:03.236Z,85.40
2018-11-13T02:57:41.275Z,85.50
2018-11-13T02:58:19.236Z,85.50
2018-11-13T02:58:57.312Z,85.60
2018-11-13T02:59:35.434Z,85.50
2018-11-13T03:00:20.298Z,85.50
2018-11-13T03:00:58.284Z,85.40
2018-11-13T03:01:36.339Z,85.30
2018-11-13T03:02:14.293Z,85.20
2018-11-13T03:02:53.355Z,85.10
2018-11-13T03:03:31.261Z,85.00
2018-11-13T03:04:09.114Z,84.90
2018-11-13T03:04:47.012Z,85.10
2018-11-13T03:05:24.919Z,85.10
2018-11-13T03:06:02.876Z,85.20
2018-11-13T03:06:40.783Z,85.30
2018-11-13T03:07:18.698Z,85.50
2018-11-13T03:07:56.617Z,85.50
2018-11-13T03:08:34.487Z,85.40
2018-11-13T03:09:12.879Z,85.30
2018-11-13T03:09:50.767Z,85.00
2018-11-13T03:10:28.900Z,84.80
2018-11-13T03:11:06.728Z,84.70
2018-11-13T03:11:44.602Z,84.50
2018-11-13T03:12:22.498Z,84.40
2018-11-13T03:13:00.424Z,84.50
2018-11-13T03:13:39.674Z,84.60
2018-11-13T03:14:17.565Z,84.70
2018-11-13T03:14:55.459Z,84.70
2018-11-13T03:15:33.423Z,84.70
2018-11-13T03:16:11.307Z,84.70
2018-11-13T03:16:49.424Z,84.60
2018-11-13T03:17:27.375Z,84.70
2018-11-13T03:18:05.324Z,84.60
2018-11-13T03:18:43.248Z,84.70
2018-11-13T03:19:21.299Z,84.60
2018-11-13T03:19:59.176Z,85.50
2018-11-13T03:20:37.324Z,84.80
2018-11-13T03:21:15.243Z,84.90
2018-11-13T03:21:54.064Z,85.00
2018-11-13T03:22:32.132Z,85.10
2018-11-13T03:23:10.013Z,85.30
2018-11-13T03:23:47.930Z,85.40
2018-11-13T03:24:25.975Z,85.60
2018-11-13T03:25:04.081Z,85.70
2018-11-13T03:25:41.946Z,85.20
2018-11-13T03:26:20.340Z,86.00
2018-11-13T03:26:58.401Z,86.00
2018-11-13T03:27:36.335Z,85.90
2018-11-13T03:28:15.154Z,86.00
2018-11-13T03:28:53.142Z,86.00
2018-11-13T03:29:32.191Z,86.00
2018-11-13T03:30:14.492Z,86.00
2018-11-13T03:30:53.354Z,86.00
2018-11-13T03:31:31.483Z,85.90
2018-11-13T03:32:09.479Z,86.00
2018-11-13T03:32:47.557Z,86.40
2018-11-13T03:33:25.432Z,86.60
2018-11-13T03:34:03.318Z,86.50
2018-11-13T03:34:41.278Z,86.40
2018-11-13T03:35:20.451Z,86.40
2018-11-13T03:35:58.504Z,86.40
2018-11-13T03:36:36.638Z,86.50
2018-11-13T03:37:14.531Z,86.50
2018-11-13T03:37:52.554Z,86.50
2018-11-13T03:38:30.786Z,86.50
2018-11-13T03:39:11.597Z,86.50
2018-11-13T03:39:49.634Z,86.50
2018-11-13T03:40:27.841Z,86.50
2018-11-13T03:41:05.769Z,86.40
2018-11-13T03:41:43.633Z,86.40
2018-11-13T03:42:21.596Z,86.30
2018-11-13T03:42:59.534Z,86.40
2018-11-13T03:43:37.449Z,86.60
2018-11-13T03:44:15.577Z,86.20
2018-11-13T03:44:53.480Z,86.20
2018-11-13T03:45:31.241Z,86.30
2018-11-13T03:46:09.351Z,86.40
2018-11-13T03:46:47.736Z,86.30
2018-11-13T03:47:25.640Z,86.20
2018-11-13T03:48:03.571Z,86.20
2018-11-13T03:48:41.527Z,86.20
2018-11-13T03:49:19.558Z,86.20
2018-11-13T03:49:57.564Z,86.20
2018-11-13T03:50:35.536Z,86.30
2018-11-13T03:51:13.357Z,86.20
2018-11-13T03:51:51.439Z,86.20
2018-11-13T03:52:29.364Z,86.20
2018-11-13T03:53:07.193Z,86.10
2018-11-13T03:53:45.063Z,86.10
2018-11-13T03:54:22.988Z,86.10
2018-11-13T03:55:01.937Z,86.10
2018-11-13T03:55:39.743Z,86.10
2018-11-13T03:56:17.585Z,86.10
2018-11-13T03:56:55.838Z,86.10
2018-11-13T03:57:33.752Z,86.20
2018-11-13T03:58:11.692Z,86.00
2018-11-13T03:58:49.640Z,86.10
2018-11-13T03:59:27.969Z,86.10
2018-11-13T04:00:06.006Z,85.90
2018-11-13T04:00:44.057Z,86.00
2018-11-13T04:01:21.893Z,86.00
2018-11-13T04:01:59.768Z,86.00
2018-11-13T04:02:37.848Z,86.00
2018-11-13T04:03:16.662Z,86.00
2018-11-13T04:03:54.521Z,85.90
2018-11-13T04:04:32.639Z,86.00
2018-11-13T04:05:13.112Z,86.00
2018-11-13T04:05:51.938Z,86.70
2018-11-13T04:06:30.054Z,85.90
2018-11-13T04:07:08.671Z,85.80
2018-11-13T04:07:50.882Z,85.80
2018-11-13T04:08:28.817Z,85.80
2018-11-13T04:09:07.323Z,85.80
2018-11-13T04:09:45.272Z,85.80
2018-11-13T04:10:24.006Z,85.90
2018-11-13T04:11:01.927Z,85.90
2018-11-13T04:11:40.240Z,85.70
2018-11-13T04:12:18.068Z,86.10
2018-11-13T04:12:55.928Z,85.40
2018-11-13T04:13:33.808Z,85.50
2018-11-13T04:14:13.064Z,85.50
2018-11-13T04:14:50.980Z,85.30
2018-11-13T04:15:29.068Z,85.40
2018-11-13T04:16:07.560Z,85.40
2018-11-13T04:16:45.448Z,85.20
2018-11-13T04:17:23.255Z,85.10
2018-11-13T04:18:01.131Z,85.10
2018-11-13T04:18:39.103Z,85.00
2018-11-13T04:19:17.096Z,85.00
2018-11-13T04:19:54.923Z,85.00
2018-11-13T04:20:32.913Z,85.10
2018-11-13T04:21:10.835Z,85.00
2018-11-13T04:21:58.728Z,85.10
2018-11-13T04:22:36.633Z,85.40
2018-11-13T04:23:14.949Z,85.20
2018-11-13T04:23:53.000Z,85.40
2018-11-13T04:24:30.932Z,85.80
2018-11-13T04:25:10.633Z,85.50
2018-11-13T04:25:48.679Z,85.40
2018-11-13T04:26:26.679Z,85.40
2018-11-13T04:27:04.742Z,84.80
2018-11-13T04:27:43.798Z,84.90
2018-11-13T04:28:21.798Z,85.10
2018-11-13T04:28:59.708Z,84.60
2018-11-13T04:29:37.765Z,84.40
2018-11-13T04:30:17.690Z,84.40
2018-11-13T04:30:55.703Z,84.40
2018-11-13T04:31:33.790Z,84.30
2018-11-13T04:32:11.722Z,84.40
2018-11-13T04:32:49.582Z,84.50
2018-11-13T04:33:27.657Z,84.50
2018-11-13T04:34:05.669Z,84.50
2018-11-13T04:34:43.519Z,84.60
2018-11-13T04:35:21.624Z,85.40
2018-11-13T04:35:59.593Z,84.60
2018-11-13T04:36:37.575Z,84.60
2018-11-13T04:37:15.655Z,84.60
2018-11-13T04:37:53.549Z,84.60
2018-11-13T04:38:31.376Z,85.30
2018-11-13T04:39:10.264Z,84.70
2018-11-13T04:39:48.485Z,84.60
2018-11-13T04:40:27.280Z,84.60
2018-11-13T04:41:05.406Z,84.40
2018-11-13T04:41:43.586Z,84.30
2018-11-13T04:42:21.688Z,84.30
2018-11-13T04:43:00.574Z,84.20
2018-11-13T04:43:38.578Z,84.20
2018-11-13T04:44:16.494Z,84.30
2018-11-13T04:44:54.558Z,84.30
2018-11-13T04:45:32.535Z,84.30
2018-11-13T04:46:10.391Z,84.30
2018-11-13T04:46:48.556Z,84.20
2018-11-13T04:47:26.472Z,84.10
2018-11-13T04:48:04.326Z,84.50
2018-11-13T04:48:42.318Z,83.90
2018-11-13T04:49:20.343Z,83.90
2018-11-13T04:49:58.297Z,83.80
2018-11-13T04:50:37.023Z,83.80
2018-11-13T04:51:15.053Z,83.70
2018-11-13T04:51:52.932Z,83.80
2018-11-13T04:52:30.919Z,83.70
2018-11-13T04:53:09.064Z,83.70
2018-11-13T04:53:46.945Z,83.80
2018-11-13T04:54:24.894Z,83.70
2018-11-13T04:55:02.802Z,83.90
2018-11-13T04:55:40.769Z,83.90
2018-11-13T04:56:18.792Z,83.90
2018-11-13T04:56:56.658Z,83.90
2018-11-13T04:57:34.593Z,83.90
2018-11-13T04:58:12.402Z,83.80
2018-11-13T04:58:51.299Z,83.60
2018-11-13T04:59:29.179Z,83.60
2018-11-13T05:00:08.227Z,82.90
2018-11-13T05:00:46.154Z,82.70
2018-11-13T05:01:24.191Z,82.60
2018-11-13T05:02:02.119Z,82.70
2018-11-13T05:02:41.542Z,82.80
2018-11-13T05:03:19.530Z,82.70
2018-11-13T05:03:57.484Z,82.60
2018-11-13T05:04:35.378Z,82.70
2018-11-13T05:05:14.527Z,83.10
2018-11-13T05:05:52.467Z,83.10
2018-11-13T05:06:30.821Z,83.10
2018-11-13T05:07:10.084Z,82.80
2018-11-13T05:07:49.962Z,83.00
2018-11-13T05:08:29.222Z,82.90
2018-11-13T05:09:07.504Z,82.90
2018-11-13T05:09:45.285Z,82.80
2018-11-13T05:10:23.170Z,81.80
2018-11-13T05:11:01.240Z,81.90
2018-11-13T05:11:39.299Z,81.60
2018-11-13T05:12:17.447Z,81.20
2018-11-13T05:12:55.328Z,81.40
2018-11-13T05:13:33.197Z,81.50
2018-11-13T05:14:11.293Z,81.50
2018-11-13T05:14:49.544Z,81.50
2018-11-13T05:15:27.304Z,81.50
2018-11-13T05:16:05.278Z,81.50
2018-11-13T05:16:43.208Z,81.40
2018-11-13T05:17:21.230Z,81.70
2018-11-13T05:17:59.191Z,81.60
2018-11-13T05:18:37.091Z,81.70
2018-11-13T05:19:14.978Z,82.40
2018-11-13T05:19:52.981Z,81.60
2018-11-13T05:20:30.873Z,81.60
2018-11-13T05:21:08.958Z,81.60
2018-11-13T05:21:47.104Z,81.50
2018-11-13T05:22:24.975Z,81.60
2018-11-13T05:23:03.735Z,81.70
2018-11-13T05:23:42.916Z,81.60
2018-11-13T05:24:20.935Z,81.90
2018-11-13T05:24:59.650Z,81.90
2018-11-13T05:25:38.040Z,81.80
2018-11-13T05:26:15.967Z,81.60
2018-11-13T05:26:53.923Z,81.70
2018-11-13T05:27:31.811Z,81.80
2018-11-13T05:28:09.802Z,81.50
2018-11-13T05:28:47.706Z,81.50
2018-11-13T05:29:25.593Z,81.60
2018-11-13T05:30:03.498Z,81.60
2018-11-13T05:30:41.677Z,81.50
2018-11-13T05:31:19.567Z,81.70
2018-11-13T05:31:57.662Z,81.70
2018-11-13T05:32:35.638Z,82.40
2018-11-13T05:33:13.687Z,81.70
2018-11-13T05:33:51.535Z,81.70
2018-11-13T05:34:29.635Z,81.70
2018-11-13T05:35:07.963Z,81.50
2018-11-13T05:35:46.039Z,82.00
2018-11-13T05:36:24.254Z,81.00
2018-11-13T05:37:02.215Z,80.70
2018-11-13T05:37:40.441Z,80.50
2018-11-13T05:38:18.377Z,80.60
2018-11-13T05:38:56.323Z,80.40
2018-11-13T05:39:34.431Z,79.70
2018-11-13T05:40:15.834Z,79.80
2018-11-13T05:40:53.758Z,79.20
2018-11-13T05:41:31.613Z,79.40
2018-11-13T05:42:09.759Z,79.40
2018-11-13T05:42:47.589Z,79.20
2018-11-13T05:43:25.491Z,79.20
2018-11-13T05:44:03.332Z,79.10
2018-11-13T05:44:41.432Z,79.00
2018-11-13T05:45:20.860Z,79.30
2018-11-13T05:45:58.702Z,79.40
2018-11-13T05:46:36.691Z,79.20
2018-11-13T05:47:14.950Z,79.10
2018-11-13T05:47:52.875Z,79.00
2018-11-13T05:48:30.837Z,79.20
2018-11-13T05:49:08.771Z,78.80
2018-11-13T05:49:46.592Z,78.60
2018-11-13T05:50:24.511Z,78.70
2018-11-13T05:51:03.748Z,78.90
2018-11-13T05:51:41.774Z,78.50
2018-11-13T05:52:19.682Z,78.30
2018-11-13T05:52:57.673Z,78.30
2018-11-13T05:53:35.829Z,78.00
2018-11-13T05:54:14.688Z,78.20
2018-11-13T05:54:52.524Z,78.30
2018-11-13T05:55:30.579Z,78.20
2018-11-13T05:56:08.435Z,78.20
2018-11-13T05:56:46.256Z,78.20
2018-11-13T05:57:24.116Z,78.10
2018-11-13T05:58:02.156Z,78.10
2018-11-13T05:58:40.023Z,78.00
2018-11-13T05:59:18.092Z,78.10
2018-11-13T05:59:57.046Z,78.00
2018-11-13T06:00:37.114Z,77.80
2018-11-13T06:01:15.335Z,77.80
2018-11-13T06:01:53.255Z,77.90
2018-11-13T06:02:31.179Z,78.00
2018-11-13T06:03:09.011Z,77.80
2018-11-13T06:03:46.884Z,77.70
2018-11-13T06:04:24.785Z,77.70
2018-11-13T06:05:02.818Z,77.50
2018-11-13T06:05:40.695Z,77.60
2018-11-13T06:06:18.591Z,77.60
2018-11-13T06:06:56.587Z,77.70
2018-11-13T06:07:34.470Z,77.70
2018-11-13T06:08:12.363Z,77.70
2018-11-13T06:08:50.303Z,77.70
2018-11-13T06:09:28.180Z,77.80
2018-11-13T06:10:06.111Z,77.80
2018-11-13T06:10:44.288Z,78.00
2018-11-13T06:11:22.112Z,78.00
2018-11-13T06:12:00.077Z,78.50
2018-11-13T06:12:38.034Z,79.20
2018-11-13T06:13:16.167Z,79.10
2018-11-13T06:13:54.758Z,79.10
2018-11-13T06:14:32.610Z,79.50
2018-11-13T06:15:11.164Z,79.50
2018-11-13T06:15:49.305Z,79.50
2018-11-13T06:16:27.312Z,79.40
2018-11-13T06:17:05.372Z,79.40
2018-11-13T06:17:43.319Z,79.50
2018-11-13T06:18:21.388Z,79.50
2018-11-13T06:18:59.386Z,79.60
2018-11-13T06:19:37.272Z,80.30
2018-11-13T06:20:16.760Z,80.40
2018-11-13T06:20:54.852Z,80.30
2018-11-13T06:21:32.703Z,80.20
2018-11-13T06:22:10.543Z,80.30
2018-11-13T06:22:48.402Z,80.40
2018-11-13T06:23:26.542Z,80.50
2018-11-13T06:24:04.836Z,80.50
2018-11-13T06:24:42.727Z,80.50
2018-11-13T06:25:20.834Z,80.40
2018-11-13T06:25:58.842Z,80.40
2018-11-13T06:26:36.686Z,80.40
2018-11-13T06:27:14.515Z,80.40
2018-11-13T06:27:58.393Z,80.30
2018-11-13T06:28:36.373Z,80.40
2018-11-13T06:29:14.508Z,80.30
2018-11-13T06:29:52.456Z,80.40
2018-11-13T06:30:30.411Z,80.40
2018-11-13T06:31:08.303Z,80.30
2018-11-13T06:31:46.716Z,80.30
2018-11-13T06:32:24.537Z,80.30
2018-11-13T06:33:02.627Z,80.90
2018-11-13T06:33:40.463Z,80.20
2018-11-13T06:34:18.425Z,80.20
2018-11-13T06:34:56.379Z,80.20
2018-11-13T06:35:34.604Z,80.30
2018-11-13T06:36:12.614Z,80.20
2018-11-13T06:36:50.641Z,80.20
2018-11-13T06:37:28.776Z,80.20
2018-11-13T06:38:06.637Z,80.30
2018-11-13T06:38:44.635Z,80.30
2018-11-13T06:39:22.895Z,80.10
2018-11-13T06:40:00.727Z,80.10
2018-11-13T06:40:38.731Z,80.70
2018-11-13T06:41:16.678Z,80.10
2018-11-13T06:41:54.509Z,80.30
2018-11-13T06:42:32.920Z,80.20
2018-11-13T06:43:11.003Z,79.80
2018-11-13T06:43:48.926Z,79.60
2018-11-13T06:44:26.931Z,80.10
2018-11-13T06:45:04.891Z,79.50
2018-11-13T06:45:42.843Z,79.20
2018-11-13T06:46:20.799Z,78.70
2018-11-13T06:46:58.882Z,78.90
2018-11-13T06:47:37.136Z,78.70
2018-11-13T06:48:15.488Z,78.70
2018-11-13T06:48:53.325Z,78.70
2018-11-13T06:49:31.291Z,78.60
2018-11-13T06:50:10.166Z,78.60
2018-11-13T06:50:48.074Z,78.60
2018-11-13T06:51:26.071Z,79.10
2018-11-13T06:52:05.278Z,78.50
2018-11-13T06:52:43.490Z,78.40
2018-11-13T06:53:21.536Z,78.10
2018-11-13T06:54:08.383Z,78.20
2018-11-13T06:55:11.355Z,78.30
2018-11-13T06:55:52.337Z,78.20
2018-11-13T06:56:31.278Z,78.30
2018-11-13T06:57:09.186Z,78.20
2018-11-13T06:57:47.618Z,78.20
2018-11-13T06:58:25.676Z,78.20
2018-11-13T06:59:03.750Z,78.70
2018-11-13T06:59:41.680Z,78.80
2018-11-13T07:00:19.641Z,78.90
2018-11-13T07:00:57.547Z,78.70
2018-11-13T07:01:36.436Z,78.90
2018-11-13T07:02:14.297Z,79.00
2018-11-13T07:02:52.390Z,78.90
2018-11-13T07:03:30.246Z,78.90
2018-11-13T07:04:08.611Z,78.80
2018-11-13T07:04:46.692Z,78.90
2018-11-13T07:05:24.711Z,78.80
2018-11-13T07:06:02.655Z,78.70
2018-11-13T07:06:40.544Z,79.10
2018-11-13T07:07:18.484Z,78.70
2018-11-13T07:07:56.473Z,78.70
2018-11-13T07:08:34.409Z,78.80
2018-11-13T07:09:12.598Z,78.70
2018-11-13T07:09:50.619Z,78.50
2018-11-13T07:10:29.426Z,78.50
2018-11-13T07:11:07.273Z,78.50
2018-11-13T07:11:45.430Z,78.60
2018-11-13T07:12:23.576Z,78.70
2018-11-13T07:13:02.627Z,78.70
2018-11-13T07:13:40.656Z,78.80
2018-11-13T07:14:18.777Z,78.90
2018-11-13T07:14:56.816Z,79.00
2018-11-13T07:15:37.401Z,78.90
2018-11-13T07:16:15.258Z,78.90
2018-11-13T07:16:53.371Z,78.80
2018-11-13T07:17:31.293Z,78.80
2018-11-13T07:18:09.379Z,78.50
2018-11-13T07:18:47.184Z,78.50
2018-11-13T07:19:24.998Z,78.50
2018-11-13T07:20:03.179Z,78.50
2018-11-13T07:20:41.062Z,78.50
2018-11-13T07:21:19.164Z,78.30
2018-11-13T07:21:57.919Z,78.10
2018-11-13T07:22:36.137Z,78.10
2018-11-13T07:23:57.396Z,78.10
2018-11-13T07:24:35.303Z,78.10
2018-11-13T07:25:14.256Z,78.20
2018-11-13T07:25:52.592Z,78.30
2018-11-13T07:26:30.473Z,78.50
2018-11-13T07:27:08.452Z,78.50
2018-11-13T07:27:46.931Z,78.40
2018-11-13T07:28:25.824Z,78.30
2018-11-13T07:29:04.880Z,78.30
2018-11-13T07:29:42.891Z,77.90
2018-11-13T07:30:21.662Z,77.80
2018-11-13T07:30:59.630Z,77.80
2018-11-13T07:31:37.770Z,78.10
2018-11-13T07:32:15.853Z,77.90
2018-11-13T07:32:53.807Z,77.60
2018-11-13T07:33:31.983Z,77.70
2018-11-13T07:34:10.179Z,77.70
2018-11-13T07:34:48.107Z,77.80
2018-11-13T07:35:26.059Z,77.80
2018-11-13T07:36:03.900Z,77.70
2018-11-13T07:36:41.772Z,77.70
2018-11-13T07:37:19.643Z,78.40
2018-11-13T07:38:01.477Z,77.70
2018-11-13T07:38:39.275Z,77.70
2018-11-13T07:39:18.007Z,77.70
2018-11-13T07:39:56.167Z,77.80
2018-11-13T07:40:34.142Z,77.80
2018-11-13T07:41:12.152Z,77.90
2018-11-13T07:41:50.248Z,77.80
2018-11-13T07:42:28.563Z,77.40
2018-11-13T07:43:06.542Z,77.20
2018-11-13T07:43:45.362Z,77.30
2018-11-13T07:44:23.432Z,77.10
2018-11-13T07:45:01.480Z,77.00
2018-11-13T07:45:39.530Z,77.10
2018-11-13T07:46:17.387Z,77.10
2018-11-13T07:46:55.408Z,77.20
2018-11-13T07:47:33.478Z,77.20
2018-11-13T07:48:11.772Z,77.20
2018-11-13T07:48:49.779Z,77.00
2018-11-13T07:49:27.687Z,77.00
2018-11-13T07:50:05.797Z,77.00
2018-11-13T07:50:43.699Z,76.90
2018-11-13T07:51:21.737Z,77.00
2018-11-13T07:51:59.716Z,77.10
2018-11-13T07:52:37.821Z,77.10
2018-11-13T07:53:15.838Z,77.00
2018-11-13T07:53:53.672Z,77.70
2018-11-13T07:54:31.833Z,77.20
2018-11-13T07:55:10.234Z,77.10
2018-11-13T07:55:48.336Z,77.10
2018-11-13T07:56:26.249Z,77.00
2018-11-13T07:57:04.100Z,77.80
2018-11-13T07:57:41.953Z,76.90
2018-11-13T07:58:20.328Z,76.90
2018-11-13T07:58:58.216Z,76.80
2018-11-13T07:59:36.311Z,76.80
2018-11-13T08:00:18.217Z,76.90
2018-11-13T08:00:56.583Z,76.80
2018-11-13T08:01:34.470Z,77.20
2018-11-13T08:02:12.846Z,76.80
2018-11-13T08:02:51.996Z,76.80
2018-11-13T08:03:34.835Z,76.80
2018-11-13T08:04:12.714Z,76.90
2018-11-13T08:04:50.546Z,77.10
2018-11-13T08:05:28.552Z,77.20
2018-11-13T08:06:07.210Z,77.10
2018-11-13T08:06:45.209Z,77.20
2018-11-13T08:07:23.213Z,77.20
2018-11-13T08:08:01.298Z,77.30
2018-11-13T08:08:39.163Z,77.20
2018-11-13T08:09:17.028Z,77.30
2018-11-13T08:09:55.765Z,77.40
2018-11-13T08:10:33.603Z,77.30
2018-11-13T08:11:11.844Z,77.30
2018-11-13T08:11:49.698Z,77.20
2018-11-13T08:12:35.219Z,77.10
2018-11-13T08:13:13.597Z,77.00
2018-11-13T08:13:51.725Z,77.10
2018-11-13T08:14:29.743Z,77.10